createdAt,value
2018-09-13T00:01:06.058Z,97.00
2018-09-13T00:03:34.569Z,97.00
2018-09-13T00:06:03.673Z,97.00
2018-09-13T00:08:32.082Z,97.00
2018-09-13T00:11:01.728Z,97.00
2018-09-13T00:13:30.182Z,97.00
2018-09-13T00:15:58.591Z,97.00
2018-09-13T00:18:26.996Z,97.00
2018-09-13T00:20:55.433Z,97.00
2018-09-13T00:23:23.877Z,97.00
2018-09-13T00:25:52.442Z,97.00
2018-09-13T00:28:20.943Z,97.00
2018-09-13T00:30:49.609Z,97.00
2018-09-13T00:33:18.180Z,97.00
2018-09-13T00:35:46.614Z,97.00
2018-09-13T00:38:15.058Z,97.00
2018-09-13T00:40:43.620Z,97.00
2018-09-13T00:43:12.186Z,97.00
2018-09-13T00:45:41.434Z,97.00
2018-09-13T00:48:09.849Z,97.00
2018-09-13T00:50:38.366Z,97.00
2018-09-13T00:53:07.080Z,97.00
2018-09-13T00:55:35.715Z,97.00
2018-09-13T00:58:04.181Z,97.00
2018-09-13T01:00:32.648Z,97.00
2018-09-13T01:03:01.205Z,97.00
2018-09-13T01:05:29.762Z,97.00
2018-09-13T01:07:58.202Z,97.00
2018-09-13T01:10:26.631Z,97.00
2018-09-13T01:12:55.068Z,97.00
2018-09-13T01:15:23.559Z,97.00
2018-09-13T01:17:52.054Z,97.00
2018-09-13T01:20:20.523Z,97.00
2018-09-13T01:22:48.914Z,97.00
2018-09-13T01:25:17.302Z,97.00
2018-09-13T01:27:45.688Z,97.00
2018-09-13T01:30:14.117Z,97.00
2018-09-13T01:32:42.629Z,97.00
2018-09-13T01:35:11.284Z,97.00
2018-09-13T01:37:39.715Z,97.00
2018-09-13T01:40:08.224Z,97.00
2018-09-13T01:42:36.687Z,97.00
2018-09-13T01:45:05.206Z,97.00
2018-09-13T01:47:33.566Z,97.00
2018-09-13T01:50:01.962Z,97.00
2018-09-13T01:52:30.438Z,97.00
2018-09-13T01:54:58.920Z,97.00
2018-09-13T01:57:27.232Z,97.00
2018-09-13T01:59:55.835Z,97.00
2018-09-13T02:02:24.641Z,97.00
2018-09-13T02:04:53.097Z,97.00
2018-09-13T02:07:21.481Z,97.00
2018-09-13T02:09:49.852Z,97.00
2018-09-13T02:12:18.272Z,97.00
2018-09-13T02:14:47.478Z,97.00
2018-09-13T02:17:15.909Z,97.00
2018-09-13T02:19:44.357Z,97.00
2018-09-13T02:22:12.750Z,97.00
2018-09-13T02:24:41.552Z,97.00
2018-09-13T02:27:09.901Z,97.00
2018-09-13T02:29:38.379Z,97.00
2018-09-13T02:32:06.988Z,97.00
2018-09-13T02:34:35.577Z,97.00
2018-09-13T02:37:03.949Z,97.00
2018-09-13T02:39:38.402Z,97.00
2018-09-13T02:42:07.240Z,97.00
2018-09-13T02:44:35.626Z,97.00
2018-09-13T02:47:04.129Z,97.00
2018-09-13T02:49:32.520Z,97.00
2018-09-13T02:52:01.224Z,97.00
2018-09-13T02:54:29.686Z,97.00
2018-09-13T02:56:58.065Z,97.00
2018-09-13T02:59:26.572Z,97.00
2018-09-13T03:01:54.937Z,97.00
2018-09-13T03:04:23.379Z,97.00
2018-09-13T03:06:51.778Z,97.00
2018-09-13T03:09:20.209Z,97.00
2018-09-13T03:11:48.585Z,97.00
2018-09-13T03:14:17.029Z,97.00
2018-09-13T03:16:45.409Z,97.00
2018-09-13T03:19:13.791Z,97.00
2018-09-13T03:21:42.199Z,97.00
2018-09-13T03:24:10.622Z,97.00
2018-09-13T03:26:39.054Z,97.00
2018-09-13T03:29:07.481Z,97.00
2018-09-13T03:31:35.875Z,97.00
2018-09-13T03:34:04.513Z,97.00
2018-09-13T03:36:32.903Z,97.00
2018-09-13T03:39:01.302Z,97.00
2018-09-13T03:41:29.704Z,97.00
2018-09-13T03:43:58.095Z,97.00
2018-09-13T03:46:26.504Z,97.00
2018-09-13T03:48:54.884Z,97.00
2018-09-13T03:51:23.263Z,97.00
2018-09-13T03:53:51.738Z,97.00
2018-09-13T03:56:20.141Z,97.00
2018-09-13T03:58:48.538Z,97.00
2018-09-13T04:01:17.023Z,97.00
2018-09-13T04:03:45.459Z,97.00
2018-09-13T04:06:13.840Z,97.00
2018-09-13T04:08:42.259Z,97.00
2018-09-13T04:11:17.161Z,97.00
2018-09-13T04:13:45.591Z,97.00
2018-09-13T04:16:13.966Z,97.00
2018-09-13T04:18:44.402Z,97.00
2018-09-13T04:21:12.705Z,97.00
2018-09-13T04:23:41.151Z,97.00
2018-09-13T04:26:09.609Z,97.00
2018-09-13T04:28:38.168Z,97.00
2018-09-13T04:31:06.607Z,97.00
2018-09-13T04:33:35.005Z,97.00
2018-09-13T04:36:03.569Z,97.00
2018-09-13T04:38:33.353Z,97.00
2018-09-13T04:41:01.830Z,97.00
2018-09-13T04:43:30.301Z,97.00
2018-09-13T04:45:58.735Z,97.00
2018-09-13T04:48:27.113Z,97.00
2018-09-13T04:50:55.572Z,97.00
2018-09-13T04:53:23.982Z,97.00
2018-09-13T04:55:52.738Z,97.00
2018-09-13T04:58:21.146Z,97.00
2018-09-13T05:00:57.651Z,97.00
2018-09-13T05:03:26.264Z,97.00
2018-09-13T05:05:56.596Z,97.00
2018-09-13T05:08:25.318Z,97.00
2018-09-13T05:10:53.666Z,97.00
2018-09-13T05:13:22.040Z,97.00
2018-09-13T05:15:52.478Z,97.00
2018-09-13T05:18:20.854Z,97.00
2018-09-13T05:20:49.225Z,97.00
2018-09-13T05:23:17.532Z,97.00
2018-09-13T05:25:45.945Z,97.00
2018-09-13T05:28:14.693Z,97.00
2018-09-13T05:30:43.033Z,97.00
2018-09-13T05:33:11.400Z,97.00
2018-09-13T05:35:39.709Z,97.00
2018-09-13T05:38:08.073Z,97.00
2018-09-13T05:40:36.482Z,97.00
2018-09-13T05:43:04.884Z,97.00
2018-09-13T05:45:33.236Z,97.00
2018-09-13T05:48:01.597Z,97.00
2018-09-13T05:50:29.907Z,97.00
2018-09-13T05:52:58.268Z,97.00
2018-09-13T05:55:26.806Z,97.00
2018-09-13T05:57:55.289Z,97.00
2018-09-13T06:00:23.645Z,97.00
2018-09-13T06:02:52.000Z,97.00
2018-09-13T06:05:20.356Z,97.00
2018-09-13T06:07:48.811Z,97.00
2018-09-13T06:10:17.347Z,97.00
2018-09-13T06:12:45.901Z,97.00
2018-09-13T06:15:14.285Z,97.00
2018-09-13T06:17:42.959Z,97.00
2018-09-13T06:20:11.409Z,97.00
2018-09-13T06:22:39.855Z,97.00
2018-09-13T06:25:08.296Z,97.00
2018-09-13T06:27:36.661Z,97.00
2018-09-13T06:30:05.088Z,97.00
2018-09-13T06:32:33.529Z,97.00
2018-09-13T06:35:01.922Z,97.00
2018-09-13T06:37:30.307Z,97.00
2018-09-13T06:39:58.725Z,97.00
2018-09-13T06:42:27.155Z,97.00
2018-09-13T06:44:55.507Z,97.00
2018-09-13T06:47:23.905Z,97.00
2018-09-13T06:49:52.409Z,97.00
2018-09-13T06:52:20.848Z,97.00
2018-09-13T06:54:49.338Z,97.00
2018-09-13T06:57:17.802Z,97.00
2018-09-13T06:59:46.270Z,97.00
2018-09-13T07:02:14.799Z,97.00
2018-09-13T07:04:43.210Z,97.00
2018-09-13T07:07:11.774Z,97.00
2018-09-13T07:09:40.245Z,97.00
2018-09-13T07:12:08.721Z,97.00
2018-09-13T07:14:37.264Z,97.00
2018-09-13T07:17:05.788Z,97.00
2018-09-13T07:19:34.348Z,97.00
2018-09-13T07:22:03.947Z,97.00
2018-09-13T07:24:32.511Z,97.00
2018-09-13T07:27:00.993Z,97.00
2018-09-13T07:29:29.370Z,97.00
2018-09-13T07:31:57.832Z,97.00
2018-09-13T07:34:26.192Z,97.00
2018-09-13T07:36:54.598Z,97.00
2018-09-13T07:39:22.929Z,97.00
2018-09-13T07:41:51.261Z,97.00
2018-09-13T07:44:19.564Z,97.00
2018-09-13T07:46:47.880Z,97.00
2018-09-13T07:49:16.792Z,97.00
2018-09-13T07:51:45.143Z,97.00
2018-09-13T07:54:13.483Z,97.00
2018-09-13T07:56:42.596Z,97.00
2018-09-13T07:59:10.934Z,97.00
2018-09-13T08:01:39.310Z,97.00
2018-09-13T08:04:20.819Z,97.00
2018-09-13T08:06:49.296Z,97.00
2018-09-13T08:09:17.643Z,97.00
2018-09-13T08:11:45.983Z,97.00
2018-09-13T08:14:14.386Z,97.00
2018-09-13T08:16:43.614Z,97.00
2018-09-13T08:19:11.960Z,97.00
2018-09-13T08:21:40.390Z,97.00
2018-09-13T08:24:08.646Z,97.00
2018-09-13T08:26:37.027Z,97.00
2018-09-13T08:29:05.452Z,97.00
2018-09-13T08:31:33.745Z,97.00
2018-09-13T08:34:02.125Z,97.00
2018-09-13T08:36:30.473Z,97.00
2018-09-13T08:39:11.333Z,97.00
2018-09-13T08:41:39.849Z,97.00
2018-09-13T08:44:08.213Z,97.00
2018-09-13T08:46:36.508Z,97.00
2018-09-13T08:49:04.885Z,97.00
2018-09-13T08:51:33.243Z,97.00
2018-09-13T08:54:01.566Z,97.00
2018-09-13T08:56:29.930Z,97.00
2018-09-13T08:58:59.518Z,97.00
2018-09-13T09:01:28.905Z,97.00
2018-09-13T09:03:59.765Z,97.00
2018-09-13T09:06:28.273Z,97.00
2018-09-13T09:08:57.358Z,97.00
2018-09-13T09:11:25.697Z,97.00
2018-09-13T09:13:54.032Z,97.00
2018-09-13T09:16:22.460Z,97.00
2018-09-13T09:18:51.781Z,97.00
2018-09-13T09:21:20.176Z,97.00
2018-09-13T09:23:48.524Z,97.00
2018-09-13T09:26:16.845Z,97.00
2018-09-13T09:28:45.281Z,97.00
2018-09-13T09:31:13.562Z,97.00
2018-09-13T09:33:42.028Z,97.00
2018-09-13T09:36:10.535Z,97.00
2018-09-13T09:38:38.913Z,97.00
2018-09-13T09:41:07.403Z,97.00
2018-09-13T09:43:35.992Z,97.00
2018-09-13T09:46:04.477Z,97.00
2018-09-13T09:48:39.358Z,97.00
2018-09-13T09:51:07.820Z,97.00
2018-09-13T09:53:36.378Z,97.00
2018-09-13T09:56:06.620Z,97.00
2018-09-13T09:58:35.436Z,97.00
2018-09-13T10:01:09.448Z,97.00
2018-09-13T10:03:38.105Z,97.00
2018-09-13T10:06:06.512Z,97.00
2018-09-13T10:08:34.830Z,97.00
2018-09-13T10:11:03.187Z,97.00
2018-09-13T10:13:31.496Z,97.00
2018-09-13T10:16:06.003Z,97.00
2018-09-13T10:18:39.665Z,97.00
2018-09-13T10:21:14.243Z,97.00
2018-09-13T10:23:48.696Z,97.00
2018-09-13T10:26:22.316Z,97.00
2018-09-13T10:28:56.158Z,97.00
2018-09-13T10:31:29.826Z,97.00
2018-09-13T10:34:03.475Z,97.00
2018-09-13T10:36:37.215Z,97.00
2018-09-13T10:39:13.472Z,97.00
2018-09-13T10:41:47.546Z,97.00
2018-09-13T10:44:21.306Z,97.00
2018-09-13T10:46:54.948Z,97.00
2018-09-13T10:49:28.596Z,97.00
2018-09-13T10:52:03.186Z,97.00
2018-09-13T10:54:44.253Z,97.00
2018-09-13T10:57:17.790Z,97.00
2018-09-13T10:59:47.201Z,97.00
2018-09-13T11:02:15.562Z,97.00
2018-09-13T11:04:43.958Z,97.00
2018-09-13T11:07:12.598Z,97.00
2018-09-13T11:09:41.041Z,97.00
2018-09-13T11:12:09.559Z,97.00
2018-09-13T11:14:52.184Z,97.00
2018-09-13T11:17:22.357Z,97.00
2018-09-13T11:19:50.741Z,97.00
2018-09-13T11:22:19.090Z,97.00
2018-09-13T11:24:47.477Z,97.00
2018-09-13T11:27:15.908Z,97.00
2018-09-13T11:29:44.650Z,97.00
2018-09-13T11:32:13.531Z,97.00
2018-09-13T11:34:42.432Z,97.00
2018-09-13T11:37:10.767Z,97.00
2018-09-13T11:39:39.157Z,97.00
2018-09-13T11:42:07.444Z,97.00
2018-09-13T11:44:36.661Z,97.00
2018-09-13T11:47:05.379Z,97.00
2018-09-13T11:49:33.664Z,97.00
2018-09-13T11:52:01.987Z,97.00
2018-09-13T11:54:30.316Z,97.00
2018-09-13T11:56:58.813Z,97.00
2018-09-13T11:59:27.121Z,97.00
2018-09-13T12:01:55.498Z,97.00
2018-09-13T12:04:23.756Z,97.00
2018-09-13T12:06:52.011Z,97.00
2018-09-13T12:09:20.397Z,97.00
2018-09-13T12:11:48.678Z,97.00
2018-09-13T12:14:17.014Z,97.00
2018-09-13T12:16:45.334Z,97.00
2018-09-13T12:19:13.725Z,97.00
2018-09-13T12:21:42.069Z,97.00
2018-09-13T12:24:10.402Z,97.00
2018-09-13T12:26:38.723Z,97.00
2018-09-13T12:29:07.056Z,97.00
2018-09-13T12:31:35.384Z,97.00
2018-09-13T12:34:03.699Z,97.00
2018-09-13T12:36:32.111Z,97.00
2018-09-13T12:39:00.515Z,97.00
2018-09-13T12:41:28.956Z,97.00
2018-09-13T12:43:57.276Z,97.00
2018-09-13T12:46:25.677Z,97.00
2018-09-13T12:48:53.987Z,97.00
2018-09-13T12:51:22.330Z,97.00
2018-09-13T12:53:50.672Z,97.00
2018-09-13T12:56:19.152Z,97.00
2018-09-13T12:58:48.784Z,97.00
2018-09-13T13:01:17.110Z,97.00
2018-09-13T13:03:45.432Z,97.00
2018-09-13T13:06:13.890Z,97.00
2018-09-13T13:08:42.226Z,97.00
2018-09-13T13:11:10.604Z,97.00
2018-09-13T13:13:39.324Z,97.00
2018-09-13T13:16:07.673Z,97.00
2018-09-13T13:18:36.011Z,96.40
2018-09-13T13:21:04.573Z,95.30
2018-09-13T13:23:32.915Z,93.50
2018-09-13T13:26:01.244Z,93.70
2018-09-13T13:28:29.578Z,92.10
2018-09-13T13:30:57.913Z,92.10
2018-09-13T13:33:26.285Z,92.20
2018-09-13T13:35:54.634Z,91.70
2018-09-13T13:38:22.976Z,91.80
2018-09-13T13:40:51.303Z,91.10
2018-09-13T13:43:19.626Z,91.50
2018-09-13T13:45:48.004Z,91.50
2018-09-13T13:48:16.420Z,90.70
2018-09-13T13:50:44.810Z,89.60
2018-09-13T13:53:13.349Z,89.50
2018-09-13T13:55:41.710Z,88.90
2018-09-13T13:58:10.047Z,89.80
2018-09-13T14:00:38.360Z,89.80
2018-09-13T14:03:06.744Z,91.00
2018-09-13T14:05:35.080Z,92.60
2018-09-13T14:08:03.503Z,92.90
2018-09-13T14:10:31.827Z,92.90
2018-09-13T14:13:00.243Z,92.10
2018-09-13T14:15:28.606Z,92.00
2018-09-13T14:17:56.930Z,91.40
2018-09-13T14:20:25.336Z,91.00
2018-09-13T14:22:53.590Z,91.20
2018-09-13T14:25:21.997Z,92.20
2018-09-13T14:27:50.436Z,92.90
2018-09-13T14:30:18.772Z,93.80
2018-09-13T14:32:47.118Z,94.10
2018-09-13T14:35:15.428Z,94.70
2018-09-13T14:37:43.708Z,94.00
2018-09-13T14:40:13.472Z,93.90
2018-09-13T14:42:41.861Z,94.20
2018-09-13T14:45:10.183Z,93.70
2018-09-13T14:47:38.577Z,94.10
2018-09-13T14:50:06.973Z,94.30
2018-09-13T14:52:35.281Z,94.30
2018-09-13T14:55:03.969Z,95.60
2018-09-13T14:57:32.265Z,96.10
2018-09-13T15:00:00.571Z,95.80
2018-09-13T15:02:28.918Z,94.50
2018-09-13T15:04:57.295Z,94.00
2018-09-13T15:07:25.661Z,94.10
2018-09-13T15:09:53.947Z,93.80
2018-09-13T15:12:22.246Z,91.90
2018-09-13T15:14:50.600Z,91.10
2018-09-13T15:17:18.970Z,90.50
2018-09-13T15:19:47.334Z,90.10
2018-09-13T15:22:15.997Z,90.10
2018-09-13T15:24:44.434Z,91.00
2018-09-13T15:27:19.386Z,91.90
2018-09-13T15:29:47.985Z,92.00
2018-09-13T15:32:16.283Z,93.00
2018-09-13T15:34:44.633Z,94.00
2018-09-13T15:37:12.960Z,95.10
2018-09-13T15:39:41.436Z,96.20
2018-09-13T15:42:14.669Z,97.00
2018-09-13T15:44:43.755Z,97.00
2018-09-13T15:47:17.468Z,97.00
2018-09-13T15:52:53.719Z,97.00
2018-09-13T15:55:23.034Z,97.00
2018-09-13T15:57:51.464Z,97.00
2018-09-13T16:00:19.904Z,97.00
2018-09-13T16:02:48.274Z,97.00
2018-09-13T16:05:16.676Z,97.00
2018-09-13T16:07:45.915Z,97.00
2018-09-13T16:10:14.278Z,97.00
2018-09-13T16:12:42.807Z,97.00
2018-09-13T16:15:11.123Z,97.00
2018-09-13T16:17:39.737Z,97.00
2018-09-13T16:20:08.284Z,97.00
2018-09-13T16:22:36.763Z,97.00
2018-09-13T16:25:05.337Z,97.00
2018-09-13T16:27:33.693Z,97.00
2018-09-13T16:30:02.127Z,97.00
2018-09-13T16:32:33.003Z,97.00
2018-09-13T16:35:01.465Z,97.00
2018-09-13T16:37:35.084Z,97.00
2018-09-13T16:41:12.472Z,97.00
2018-09-13T16:43:46.090Z,97.00
2018-09-13T16:46:19.847Z,97.00
2018-09-13T16:48:48.261Z,97.00
2018-09-13T16:51:16.579Z,97.00
2018-09-13T16:53:44.883Z,97.00
2018-09-13T16:56:13.279Z,97.00
2018-09-13T16:58:41.950Z,97.00
2018-09-13T17:01:10.324Z,97.00
2018-09-13T17:03:38.740Z,97.00
2018-09-13T17:06:07.108Z,97.00
2018-09-13T17:08:35.487Z,97.00
2018-09-13T17:11:04.024Z,97.00
2018-09-13T17:13:32.632Z,97.00
2018-09-13T17:16:01.040Z,97.00
2018-09-13T17:18:29.444Z,97.00
2018-09-13T17:20:57.798Z,97.00
2018-09-13T17:23:26.208Z,97.00
2018-09-13T17:25:54.669Z,97.00
2018-09-13T17:28:23.095Z,97.00
2018-09-13T17:30:51.513Z,97.00
2018-09-13T17:33:19.920Z,97.00
2018-09-13T17:35:48.283Z,97.00
2018-09-13T17:38:17.432Z,97.00
2018-09-13T17:40:46.522Z,97.00
2018-09-13T17:43:15.197Z,97.00
2018-09-13T17:45:43.596Z,97.00
2018-09-13T17:48:11.931Z,97.00
2018-09-13T17:50:40.375Z,97.00
2018-09-13T17:53:09.726Z,97.00
2018-09-13T17:55:38.599Z,97.00
2018-09-13T17:58:07.670Z,97.00
2018-09-13T18:00:36.488Z,97.00
2018-09-13T18:03:05.568Z,97.00
2018-09-13T18:05:34.151Z,97.00
2018-09-13T18:08:03.503Z,97.00
2018-09-13T18:10:31.833Z,97.00
2018-09-13T18:13:00.182Z,97.00
2018-09-13T18:15:28.580Z,97.00
2018-09-13T18:17:56.904Z,97.00
2018-09-13T18:20:25.341Z,97.00
2018-09-13T18:22:53.846Z,97.00
2018-09-13T18:25:22.403Z,97.00
2018-09-13T18:27:50.751Z,97.00
2018-09-13T18:30:19.096Z,97.00
2018-09-13T18:32:47.412Z,97.00
2018-09-13T18:35:15.835Z,97.00
2018-09-13T18:37:44.174Z,97.00
2018-09-13T18:40:12.602Z,97.00
2018-09-13T18:42:40.993Z,97.00
2018-09-13T18:45:09.517Z,97.00
2018-09-13T18:47:37.998Z,97.00
2018-09-13T18:50:06.666Z,97.00
2018-09-13T18:55:28.325Z,97.00
2018-09-13T18:57:56.964Z,97.00
2018-09-13T19:00:25.646Z,97.00
2018-09-13T19:02:54.243Z,97.00
2018-09-13T19:05:23.236Z,97.00
2018-09-13T19:07:51.800Z,97.00
2018-09-13T19:10:20.298Z,97.00
2018-09-13T19:12:48.828Z,97.00
2018-09-13T19:15:17.268Z,97.00
2018-09-13T19:17:45.676Z,97.00
2018-09-13T19:20:14.303Z,97.00
2018-09-13T19:22:42.925Z,97.00
2018-09-13T19:25:11.536Z,97.00
2018-09-13T19:27:40.840Z,97.00
2018-09-13T19:30:10.783Z,97.00
2018-09-13T19:32:41.176Z,97.00
2018-09-13T19:35:09.631Z,97.00
2018-09-13T19:37:38.269Z,97.00
2018-09-13T19:40:07.092Z,97.00
2018-09-13T19:42:36.585Z,97.00
2018-09-13T19:45:05.145Z,97.00
2018-09-13T19:47:33.559Z,97.00
2018-09-13T19:50:01.974Z,97.00
2018-09-13T19:52:30.376Z,97.00
2018-09-13T19:54:58.730Z,97.00
2018-09-13T19:57:27.154Z,97.00
2018-09-13T19:59:56.763Z,97.00
2018-09-13T20:02:25.165Z,97.00
2018-09-13T20:04:53.590Z,97.00
2018-09-13T20:07:22.119Z,97.00
2018-09-13T20:09:50.540Z,97.00
2018-09-13T20:12:19.102Z,97.00
2018-09-13T20:14:47.394Z,97.00
2018-09-13T20:17:15.759Z,97.00
2018-09-13T20:19:44.176Z,97.00
2018-09-13T20:22:13.199Z,97.00
2018-09-13T20:24:41.605Z,97.00
2018-09-13T20:27:10.217Z,97.00
2018-09-13T20:29:38.596Z,97.00
2018-09-13T20:32:07.026Z,97.00
2018-09-13T20:34:35.466Z,97.00
2018-09-13T20:37:03.912Z,97.00
2018-09-13T20:39:32.280Z,97.00
2018-09-13T20:42:00.610Z,97.00
2018-09-13T20:44:28.967Z,97.00
2018-09-13T20:46:57.413Z,97.00
2018-09-13T20:49:25.824Z,97.00
2018-09-13T20:51:54.281Z,97.00
2018-09-13T20:54:22.641Z,97.00
2018-09-13T20:56:50.962Z,97.00
2018-09-13T20:59:19.441Z,97.00
2018-09-13T21:01:47.768Z,97.00
2018-09-13T21:04:16.098Z,97.00
2018-09-13T21:06:44.414Z,97.00
2018-09-13T21:09:12.968Z,97.00
2018-09-13T21:11:41.459Z,97.00
2018-09-13T21:14:09.760Z,97.00
2018-09-13T21:16:38.105Z,97.00
2018-09-13T21:19:06.628Z,97.00
2018-09-13T21:21:35.274Z,97.00
2018-09-13T21:24:03.680Z,97.00
2018-09-13T21:26:31.956Z,97.00
2018-09-13T21:29:00.292Z,97.00
2018-09-13T21:31:28.652Z,97.00
2018-09-13T21:33:57.042Z,97.00
2018-09-13T21:36:25.513Z,97.00
2018-09-13T21:38:53.894Z,97.00
2018-09-13T21:41:22.224Z,97.00
2018-09-13T21:43:50.748Z,97.00
2018-09-13T21:46:19.082Z,97.00
2018-09-13T21:48:47.643Z,97.00
2018-09-13T21:51:16.021Z,97.00
2018-09-13T21:53:44.468Z,97.00
2018-09-13T21:56:12.887Z,97.00
2018-09-13T21:58:41.275Z,97.00
2018-09-13T22:01:09.678Z,97.00
2018-09-13T22:03:38.024Z,97.00
2018-09-13T22:06:07.730Z,97.00
2018-09-13T22:08:38.364Z,97.00
2018-09-13T22:11:06.850Z,97.00
2018-09-13T22:13:35.196Z,97.00
2018-09-13T22:16:03.664Z,97.00
2018-09-13T22:18:32.104Z,97.00
2018-09-13T22:21:00.486Z,97.00
2018-09-13T22:23:28.803Z,97.00
2018-09-13T22:25:57.107Z,97.00
2018-09-13T22:28:25.490Z,97.00
2018-09-13T22:30:53.837Z,97.00
2018-09-13T22:33:22.363Z,97.00
2018-09-13T22:35:50.695Z,97.00
2018-09-13T22:38:20.992Z,97.00
2018-09-13T22:40:49.310Z,97.00
2018-09-13T22:43:17.621Z,97.00
2018-09-13T22:45:47.599Z,97.00
2018-09-13T22:48:27.437Z,97.00
2018-09-13T22:50:55.999Z,97.00
2018-09-13T22:53:24.557Z,97.00
2018-09-13T22:55:54.098Z,97.00
2018-09-13T22:58:22.455Z,97.00
2018-09-13T23:00:57.306Z,97.00
2018-09-13T23:03:27.325Z,97.00
2018-09-13T23:05:56.830Z,97.00
2018-09-13T23:11:12.919Z,97.00
2018-09-13T23:13:41.443Z,97.00
2018-09-13T23:16:12.367Z,97.00
2018-09-13T23:18:40.782Z,97.00
2018-09-13T23:21:09.113Z,97.00
2018-09-13T23:23:37.427Z,97.00
2018-09-13T23:26:05.955Z,97.00
2018-09-13T23:28:34.291Z,97.00
2018-09-13T23:31:02.654Z,97.00
2018-09-13T23:33:31.005Z,97.00
2018-09-13T23:35:59.759Z,97.00
2018-09-13T23:38:28.385Z,97.00
2018-09-13T23:40:56.684Z,97.00
2018-09-13T23:43:26.462Z,97.00
2018-09-13T23:45:57.476Z,97.00
2018-09-13T23:48:26.683Z,97.00
2018-09-13T23:50:55.719Z,97.00
2018-09-13T23:53:24.192Z,97.00
2018-09-13T23:55:54.696Z,97.00
2018-09-13T23:58:23.568Z,97.00
